Time;durP1;ratioP1;P1;durP2;ratioP2;P2;SDS_P1;SDS_P2;PMS_P1;PMS_P2;Temp;Humidity;BMP_temperature;BMP_pressure;BME280_temperature;BME280_humidity;BME280_pressure;Samples;Min_cycle;Max_cycle;Signal;HPM_P1;HPM_P2
2023/07/30 04:02:15;;;;;;;1.17;1.07;;;17.30;97.30;;;;;;5225021;23;20487;-90
2023/07/30 04:04:44;;;;;;;1.00;0.90;;;17.30;97.30;;;;;;4933687;28;20973;-89
2023/07/30 04:07:10;;;;;;;1.17;1.10;;;17.30;97.30;;;;;;4934371;29;21004;-89
2023/07/30 04:10:20;;;;;;;6.53;1.40;;;17.30;97.30;;;;;;4943309;29;20431;-91
2023/07/30 04:13:01;;;;;;;1.87;1.63;;;17.30;97.30;;;;;;4921855;29;20272;-92
2023/07/30 04:16:40;;;;;;;1.00;1.00;;;17.30;97.30;;;;;;4936688;29;20433;-94
2023/07/30 04:20:00;;;;;;;1.07;1.00;;;17.30;97.30;;;;;;4911353;29;20436;-89
2023/07/30 04:22:51;;;;;;;1.40;1.30;;;17.40;97.30;;;;;;4898253;29;20449;-90
2023/07/30 04:25:31;;;;;;;3.77;1.90;;;17.40;97.30;;;;;;4895526;29;21031;-89
2023/07/30 04:31:20;;;;;;;1.37;1.27;;;17.40;97.30;;;;;;4885530;29;20476;-91
2023/07/30 04:33:49;;;;;;;1.73;1.50;;;17.40;97.30;;;;;;4896847;29;20458;-90
2023/07/30 04:36:21;;;;;;;2.60;1.80;;;17.50;97.30;;;;;;4896106;29;20440;-90
2023/07/30 04:38:50;;;;;;;3.47;1.53;;;17.50;97.30;;;;;;4915740;29;20511;-90
2023/07/30 04:41:21;;;;;;;2.00;1.00;;;17.50;97.30;;;;;;4914504;29;20433;-89
2023/07/30 04:43:49;;;;;;;1.17;1.07;;;17.50;97.30;;;;;;4915143;29;20416;-90
2023/07/30 04:46:21;;;;;;;1.33;1.23;;;17.50;97.30;;;;;;4912233;29;20538;-90
2023/07/30 04:48:49;;;;;;;2.40;1.83;;;17.50;97.30;;;;;;4916636;29;20934;-89
2023/07/30 04:51:21;;;;;;;1.80;1.57;;;17.50;97.30;;;;;;4913708;29;20532;-90
2023/07/30 04:53:50;;;;;;;2.63;2.43;;;17.60;97.30;;;;;;4915440;29;20421;-92
2023/07/30 04:56:18;;;;;;;0.97;0.87;;;17.60;97.30;;;;;;4912756;29;20443;-89
2023/07/30 04:58:50;;;;;;;1.00;0.90;;;17.60;97.30;;;;;;4914813;29;20412;-89
2023/07/30 05:01:19;;;;;;;1.47;1.37;;;17.60;97.30;;;;;;4914706;29;20471;-89
2023/07/30 05:04:10;;;;;;;1.23;1.13;;;17.70;97.30;;;;;;4915779;29;20401;-90
2023/07/30 05:06:39;;;;;;;1.97;1.40;;;17.70;97.30;;;;;;4919102;29;20428;-89
2023/07/30 05:09:08;;;;;;;1.47;1.27;;;17.70;97.30;;;;;;4925531;29;21084;-92
2023/07/30 05:12:20;;;;;;;1.20;1.10;;;17.70;97.30;;;;;;4925985;29;20433;-92
2023/07/30 05:14:49;;;;;;;3.10;1.83;;;17.80;97.30;;;;;;4922827;29;20433;-92
2023/07/30 05:17:21;;;;;;;1.30;1.20;;;17.80;97.30;;;;;;4919583;29;20432;-89
2023/07/30 05:19:50;;;;;;;1.90;1.77;;;17.80;97.30;;;;;;4922402;29;20430;-89
2023/07/30 05:22:19;;;;;;;1.47;1.37;;;17.80;97.30;;;;;;4918945;29;20520;-88
2023/07/30 05:24:51;;;;;;;1.10;1.00;;;17.90;97.30;;;;;;4921298;29;20484;-90
2023/07/30 05:27:58;;;;;;;1.17;1.13;;;17.90;97.30;;;;;;4917929;29;20468;-88
2023/07/30 05:30:31;;;;;;;1.20;1.10;;;18.00;97.30;;;;;;4916728;29;20477;-89
2023/07/30 05:33:00;;;;;;;1.70;1.10;;;18.00;97.30;;;;;;4914440;29;20431;-89
2023/07/30 05:35:48;;;;;;;1.50;1.40;;;18.00;97.30;;;;;;4915154;29;20926;-89
2023/07/30 05:38:37;;;;;;;8.47;2.63;;;18.10;97.30;;;;;;4910583;29;20424;-87
2023/07/30 05:41:10;;;;;;;0.97;0.90;;;18.10;97.30;;;;;;4904493;29;20519;-88
2023/07/30 05:43:39;;;;;;;1.43;1.33;;;18.10;97.30;;;;;;4926562;29;20480;-91
2023/07/30 05:46:08;;;;;;;1.13;1.03;;;18.10;97.30;;;;;;4915457;29;20478;-89
2023/07/30 05:49:17;;;;;;;2.20;0.90;;;18.20;97.30;;;;;;4915204;29;20432;-91
2023/07/30 05:52:00;;;;;;;1.40;1.10;;;18.20;97.30;;;;;;4915514;29;20483;-89
2023/07/30 05:54:29;;;;;;;1.10;1.00;;;18.20;97.30;;;;;;4915130;29;20420;-89
2023/07/30 05:57:08;;;;;;;1.20;1.10;;;18.30;97.30;;;;;;4911983;29;20429;-88
2023/07/30 05:59:39;;;;;;;1.00;0.90;;;18.30;97.30;;;;;;4914738;29;20435;-90
2023/07/30 06:02:11;;;;;;;1.30;1.23;;;18.40;97.30;;;;;;4912375;29;21022;-90
2023/07/30 06:04:40;;;;;;;1.53;1.53;;;18.40;97.30;;;;;;4911810;29;20964;-90
2023/07/30 06:07:20;;;;;;;1.37;1.20;;;18.40;97.30;;;;;;4911714;29;20442;-89
2023/07/30 06:10:41;;;;;;;1.30;1.20;;;18.50;97.30;;;;;;4915038;29;20460;-89
2023/07/30 06:13:30;;;;;;;1.27;1.17;;;18.60;97.30;;;;;;4911614;29;20523;-90
2023/07/30 06:15:59;;;;;;;1.07;0.97;;;18.70;97.30;;;;;;4914385;29;20433;-89
2023/07/30 06:19:09;;;;;;;1.50;1.40;;;18.80;97.30;;;;;;4914795;29;20431;-89
2023/07/30 06:21:41;;;;;;;1.10;1.00;;;18.80;97.30;;;;;;4914696;29;20981;-90
2023/07/30 06:24:19;;;;;;;1.10;1.00;;;18.90;97.30;;;;;;4914159;29;20515;-90
2023/07/30 06:26:51;;;;;;;2.30;1.43;;;19.00;97.30;;;;;;4912523;29;20468;-90
2023/07/30 06:29:20;;;;;;;1.27;1.20;;;19.00;97.30;;;;;;4912376;29;20911;-88
2023/07/30 06:31:51;;;;;;;1.07;0.97;;;19.10;97.30;;;;;;4913643;29;20433;-90
2023/07/30 06:34:31;;;;;;;1.37;1.27;;;19.10;97.30;;;;;;4912362;29;20463;-89
2023/07/30 06:37:00;;;;;;;1.30;1.20;;;19.20;97.30;;;;;;4913476;29;20444;-89
2023/07/30 06:39:31;;;;;;;2.60;1.90;;;19.20;97.30;;;;;;4912544;29;20421;-90
2023/07/30 06:42:00;;;;;;;1.73;1.30;;;19.30;97.30;;;;;;4915258;29;20437;-90
2023/07/30 06:44:31;;;;;;;1.53;1.43;;;19.30;97.30;;;;;;4914863;29;20413;-89
2023/07/30 06:47:11;;;;;;;1.30;1.20;;;19.40;97.30;;;;;;4908207;29;20977;-90
2023/07/30 06:50:41;;;;;;;1.73;1.63;;;19.50;97.30;;;;;;4914250;29;21064;-89
2023/07/30 06:53:41;;;;;;;1.63;1.53;;;19.60;97.30;;;;;;4855951;29;20433;-91
2023/07/30 06:56:21;;;;;;;1.20;1.13;;;19.60;97.30;;;;;;4875034;29;21011;-89
2023/07/30 06:59:22;;;;;;;1.30;1.20;;;19.70;97.30;;;;;;4864284;29;20945;-88
2023/07/30 07:01:50;;;;;;;1.20;1.10;;;19.70;97.30;;;;;;4849543;29;20868;-89
2023/07/30 07:05:31;;;;;;;2.67;1.50;;;19.80;97.30;;;;;;4858038;29;20438;-89
2023/07/30 07:08:21;;;;;;;1.83;1.73;;;19.80;97.30;;;;;;4871751;29;20513;-90
2023/07/30 07:11:21;;;;;;;1.97;1.50;;;20.00;97.30;;;;;;4855698;29;20488;-86
2023/07/30 07:14:11;;;;;;;2.67;1.93;;;20.00;97.30;;;;;;4859503;29;20432;-89
2023/07/30 07:17:31;;;;;;;2.10;1.63;;;20.10;97.30;;;;;;4853355;29;20430;-89
2023/07/30 07:20:52;;;;;;;1.30;1.20;;;20.20;97.30;;;;;;4837774;29;20876;-89
2023/07/30 07:24:10;;;;;;;1.90;1.80;;;20.30;97.30;;;;;;4837210;29;20990;-89
2023/07/30 07:27:23;;;;;;;2.60;1.77;;;20.30;97.30;;;;;;4849313;29;20447;-89
2023/07/30 07:30:01;;;;;;;1.73;1.50;;;20.40;97.30;;;;;;4874691;29;20509;-90
2023/07/30 07:32:41;;;;;;;2.47;2.27;;;20.50;97.30;;;;;;4896859;29;20995;-88
2023/07/30 07:35:10;;;;;;;1.70;1.47;;;20.60;97.30;;;;;;4929190;29;20440;-89
2023/07/30 07:37:41;;;;;;;1.57;1.17;;;20.70;97.30;;;;;;4915382;29;20425;-92
2023/07/30 07:40:42;;;;;;;2.60;2.20;;;20.80;97.30;;;;;;4913951;29;20412;-89
2023/07/30 07:43:31;;;;;;;1.10;1.00;;;20.80;97.30;;;;;;4916454;29;20436;-89
2023/07/30 07:46:51;;;;;;;6.43;2.13;;;20.90;97.30;;;;;;4909862;29;20432;-91
2023/07/30 07:49:51;;;;;;;1.10;1.03;;;20.90;97.30;;;;;;4894185;29;20986;-90
2023/07/30 07:53:01;;;;;;;1.17;1.07;;;21.00;97.30;;;;;;4897419;29;20503;-90
2023/07/30 07:55:42;;;;;;;2.60;2.50;;;21.00;97.30;;;;;;4877108;29;20935;-89
2023/07/30 08:04:10;;;;;;;1.70;1.63;;;21.10;97.30;;;;;;4851247;29;20533;-90
2023/07/30 08:06:51;;;;;;;2.50;1.60;;;21.20;97.30;;;;;;4858670;29;20455;-90
2023/07/30 08:09:19;;;;;;;2.50;1.50;;;21.30;97.30;;;;;;4843545;29;20795;-89
2023/07/30 08:12:08;;;;;;;1.50;1.40;;;21.30;97.30;;;;;;4860781;29;20462;-91
2023/07/30 08:15:01;;;;;;;4.50;1.23;;;21.40;97.10;;;;;;4891370;29;20442;-90
2023/07/30 08:17:51;;;;;;;0.90;0.83;;;21.40;96.90;;;;;;4880643;29;20425;-92
2023/07/30 08:23:31;;;;;;;2.60;2.17;;;21.50;96.70;;;;;;4922097;29;20444;-90
2023/07/30 08:26:32;;;;;;;1.67;1.57;;;21.50;96.80;;;;;;4911237;29;20463;-88
2023/07/30 08:29:22;;;;;;;8.33;1.63;;;21.50;95.90;;;;;;4893711;29;20463;-89
2023/07/30 08:32:43;;;;;;;1.10;1.00;;;21.60;96.20;;;;;;4890061;29;20448;-90
2023/07/30 08:38:30;;;;;;;4.00;3.07;;;21.60;95.60;;;;;;4854272;29;20409;-89
2023/07/30 08:40:59;;;;;;;1.23;1.13;;;21.60;96.10;;;;;;4884272;29;20450;-89
2023/07/30 08:44:10;;;;;;;1.10;1.00;;;21.60;95.90;;;;;;4878803;29;20257;-91
2023/07/30 08:46:41;;;;;;;1.03;1.00;;;21.60;96.00;;;;;;4871021;29;20440;-89
2023/07/30 08:49:09;;;;;;;6.33;2.70;;;21.70;96.60;;;;;;4864694;29;20469;-90
2023/07/30 08:55:19;;;;;;;1.00;0.90;;;21.90;97.30;;;;;;4882914;29;20410;-89
2023/07/30 08:57:51;;;;;;;1.27;1.20;;;22.10;96.20;;;;;;4878080;29;20455;-92
2023/07/30 09:00:42;;;;;;;2.00;1.87;;;22.10;95.50;;;;;;4931341;29;20433;-90
2023/07/30 09:03:22;;;;;;;2.10;1.30;;;22.00;94.70;;;;;;4935634;29;20456;-90
2023/07/30 09:05:50;;;;;;;1.93;1.83;;;22.00;93.50;;;;;;4923727;29;20440;-89
2023/07/30 09:08:22;;;;;;;1.30;1.20;;;21.90;93.60;;;;;;4912386;29;20421;-87
2023/07/30 09:10:50;;;;;;;1.43;1.40;;;21.80;93.20;;;;;;4916795;29;20472;-89
2023/07/30 09:13:39;;;;;;;3.50;1.53;;;21.90;93.70;;;;;;4916314;29;20436;-89
2023/07/30 09:16:12;;;;;;;1.30;1.20;;;22.10;93.90;;;;;;4929288;29;20413;-88
2023/07/30 09:18:43;;;;;;;1.97;1.87;;;22.20;94.10;;;;;;4916613;29;20436;-87
2023/07/30 09:21:11;;;;;;;1.30;1.20;;;22.30;93.20;;;;;;4916766;29;20445;-88
2023/07/30 09:23:42;;;;;;;1.00;0.90;;;22.40;92.80;;;;;;4917735;29;20944;-88
2023/07/30 09:26:10;;;;;;;1.37;1.27;;;22.50;91.00;;;;;;4916544;29;20458;-89
2023/07/30 09:28:36;;;;;;;1.10;1.00;;;22.70;91.30;;;;;;4916890;29;20463;-88
2023/07/30 09:31:10;;;;;;;3.03;1.77;;;22.80;90.30;;;;;;4917572;29;20940;-88
2023/07/30 09:33:42;;;;;;;1.47;1.30;;;22.90;90.90;;;;;;4912127;29;20246;-88
2023/07/30 09:36:09;;;;;;;0.90;0.80;;;23.00;91.50;;;;;;4916331;29;20424;-89
2023/07/30 09:38:42;;;;;;;1.00;1.00;;;23.10;89.00;;;;;;4916480;29;20421;-89
2023/07/30 09:41:09;;;;;;;1.37;1.27;;;23.10;90.00;;;;;;4916098;29;20531;-88
2023/07/30 09:43:35;;;;;;;1.40;1.30;;;23.10;88.80;;;;;;4914392;29;20429;-89
2023/07/30 09:46:07;;;;;;;1.10;1.00;;;23.10;89.70;;;;;;4916348;29;20952;-89
2023/07/30 09:48:34;;;;;;;2.00;1.57;;;23.10;90.70;;;;;;4916133;29;20425;-88
2023/07/30 09:51:06;;;;;;;1.10;1.00;;;23.20;92.20;;;;;;4915860;29;20472;-88
2023/07/30 09:53:35;;;;;;;1.27;1.10;;;23.30;91.20;;;;;;4916024;29;20451;-89
2023/07/30 09:56:07;;;;;;;1.00;0.90;;;23.40;89.90;;;;;;4916578;29;20802;-88
2023/07/30 09:58:32;;;;;;;2.17;1.27;;;23.50;88.20;;;;;;4916001;29;20420;-89
2023/07/30 10:01:04;;;;;;;1.00;0.90;;;23.70;88.70;;;;;;4915342;29;20480;-89
2023/07/30 10:03:33;;;;;;;1.10;1.00;;;23.70;87.80;;;;;;4916600;29;20248;-89
2023/07/30 10:06:03;;;;;;;0.97;0.87;;;23.80;86.40;;;;;;4916343;29;20815;-89
2023/07/30 10:08:34;;;;;;;0.90;0.80;;;23.80;85.50;;;;;;4918879;29;20426;-89
2023/07/30 10:11:03;;;;;;;1.00;0.90;;;23.90;83.00;;;;;;4916131;29;20478;-89
2023/07/30 10:13:30;;;;;;;1.37;1.20;;;23.90;84.50;;;;;;4907779;29;20437;-89
2023/07/30 10:15:58;;;;;;;1.20;1.10;;;24.00;85.80;;;;;;4908799;29;21074;-88
2023/07/30 10:18:37;;;;;;;0.90;0.80;;;24.00;85.00;;;;;;4914894;29;20436;-89
2023/07/30 10:21:03;;;;;;;0.80;0.70;;;24.10;84.90;;;;;;4904116;29;20464;-90
2023/07/30 10:23:33;;;;;;;0.90;0.90;;;24.20;85.10;;;;;;4916069;29;20649;-89
2023/07/30 10:26:12;;;;;;;0.93;0.83;;;24.20;84.80;;;;;;4917476;29;20327;-89
2023/07/30 10:28:43;;;;;;;1.03;0.93;;;24.30;85.40;;;;;;4917190;29;20950;-89
2023/07/30 10:31:41;;;;;;;1.33;1.23;;;24.30;85.50;;;;;;4911403;29;20827;-89
2023/07/30 10:35:01;;;;;;;1.07;1.00;;;24.40;84.70;;;;;;4921858;29;20432;-90
2023/07/30 10:37:32;;;;;;;1.03;0.93;;;24.40;84.60;;;;;;4905467;29;20448;-89
2023/07/30 10:40:21;;;;;;;1.30;1.20;;;24.40;85.50;;;;;;4902404;29;20523;-90
2023/07/30 10:43:22;;;;;;;0.90;0.80;;;24.30;85.60;;;;;;4913598;29;20429;-89
2023/07/30 10:45:51;;;;;;;0.80;0.70;;;24.40;86.30;;;;;;4915709;29;20443;-88
2023/07/30 10:48:52;;;;;;;1.10;1.00;;;24.50;85.60;;;;;;4915048;29;20432;-89
2023/07/30 10:51:29;;;;;;;2.40;1.17;;;24.50;85.60;;;;;;4910160;29;20491;-89
2023/07/30 10:54:11;;;;;;;1.07;1.03;;;24.50;85.70;;;;;;4901848;29;20827;-89
2023/07/30 10:56:41;;;;;;;1.10;1.00;;;24.50;85.20;;;;;;4894531;29;20255;-89
2023/07/30 10:59:19;;;;;;;0.83;0.73;;;24.60;85.20;;;;;;4901382;29;20414;-88
2023/07/30 11:02:01;;;;;;;1.20;1.10;;;24.70;85.30;;;;;;4914507;29;20491;-88
2023/07/30 11:04:51;;;;;;;0.90;0.80;;;24.70;83.40;;;;;;4919082;29;20433;-87
2023/07/30 11:07:20;;;;;;;13.67;2.03;;;24.80;84.30;;;;;;4916092;29;20927;-88
2023/07/30 11:10:08;;;;;;;1.00;0.90;;;24.90;84.20;;;;;;4914033;29;20493;-88
2023/07/30 11:16:00;;;;;;;1.30;1.20;;;25.20;83.90;;;;;;4909407;29;20423;-88
2023/07/30 11:21:20;;;;;;;0.90;0.80;;;25.40;82.70;;;;;;4916001;29;20256;-88
2023/07/30 11:27:11;;;;;;;0.80;0.70;;;25.50;82.00;;;;;;4920008;29;20221;-87
2023/07/30 11:29:42;;;;;;;0.90;0.80;;;25.50;80.80;;;;;;4916554;29;21066;-89
2023/07/30 11:32:08;;;;;;;1.00;0.90;;;25.40;82.30;;;;;;4918726;29;20459;-88
2023/07/30 11:34:40;;;;;;;2.20;1.57;;;25.30;82.40;;;;;;4917102;29;20444;-88
2023/07/30 11:37:12;;;;;;;1.10;1.00;;;25.30;82.60;;;;;;4918878;29;20440;-87
2023/07/30 11:39:41;;;;;;;0.90;0.80;;;25.30;82.90;;;;;;4918393;29;20435;-86
2023/07/30 11:42:09;;;;;;;1.40;1.03;;;25.20;81.80;;;;;;4918824;29;20471;-88
2023/07/30 11:44:51;;;;;;;0.90;0.90;;;25.20;81.80;;;;;;4918705;29;20452;-90
2023/07/30 11:47:28;;;;;;;0.90;0.80;;;25.30;81.30;;;;;;4918615;29;20429;-88
2023/07/30 11:50:00;;;;;;;0.90;0.80;;;25.40;82.40;;;;;;4918299;29;20467;-88
2023/07/30 11:52:28;;;;;;;1.10;1.00;;;25.60;82.10;;;;;;4918032;29;20451;-87
2023/07/30 11:55:04;;;;;;;2.90;1.10;;;25.70;80.70;;;;;;4918469;29;20428;-87
2023/07/30 11:57:36;;;;;;;0.80;0.70;;;25.80;80.60;;;;;;4919741;29;20442;-88
2023/07/30 12:00:02;;;;;;;0.90;0.80;;;25.80;81.50;;;;;;4918800;29;20429;-88
2023/07/30 12:02:29;;;;;;;0.90;0.80;;;25.70;80.20;;;;;;4952349;23;20501;-64
2023/07/30 12:04:55;;;;;;;1.03;0.93;;;25.70;80.60;;;;;;4952306;28;20445;-66
2023/07/30 12:07:24;;;;;;;1.43;1.33;;;25.80;81.00;;;;;;4952013;28;20907;-64
2023/07/30 12:09:50;;;;;;;1.60;1.03;;;25.90;80.80;;;;;;4947476;28;20591;-66
2023/07/30 12:12:15;;;;;;;0.90;0.80;;;26.10;81.10;;;;;;4934136;28;21018;-66
2023/07/30 12:14:53;;;;;;;1.17;1.07;;;26.10;80.20;;;;;;4930719;29;20196;-69
2023/07/30 12:17:18;;;;;;;0.90;0.80;;;26.10;81.40;;;;;;4925562;29;20267;-67
2023/07/30 12:19:44;;;;;;;1.53;1.43;;;26.10;81.50;;;;;;4929132;29;20527;-67
2023/07/30 12:22:09;;;;;;;1.40;1.30;;;26.10;80.90;;;;;;4930183;29;20223;-66
2023/07/30 12:24:35;;;;;;;1.20;1.10;;;26.10;81.00;;;;;;4922970;29;20195;-69
2023/07/30 12:27:01;;;;;;;2.00;1.43;;;26.10;81.00;;;;;;4931416;28;20360;-67
2023/07/30 12:29:26;;;;;;;1.33;0.90;;;26.00;80.10;;;;;;4932864;29;20196;-69
2023/07/30 12:31:53;;;;;;;1.00;1.00;;;26.00;80.30;;;;;;4930673;29;20692;-66
2023/07/30 12:34:19;;;;;;;1.00;0.90;;;26.00;80.20;;;;;;4931264;29;20297;-66
2023/07/30 12:36:45;;;;;;;1.10;1.00;;;26.00;80.50;;;;;;4930363;29;20446;-67
2023/07/30 12:39:11;;;;;;;0.90;0.90;;;26.00;80.00;;;;;;4932352;29;20810;-67
2023/07/30 12:41:37;;;;;;;0.90;0.80;;;25.90;80.10;;;;;;4930850;28;20555;-68
2023/07/30 12:44:04;;;;;;;2.30;1.07;;;25.80;80.50;;;;;;4946667;29;20233;-68
2023/07/30 12:46:31;;;;;;;1.10;1.00;;;25.70;80.70;;;;;;4932013;28;20423;-69
2023/07/30 12:49:02;;;;;;;0.90;0.80;;;25.70;81.30;;;;;;4930754;29;20648;-66
2023/07/30 12:51:27;;;;;;;1.00;1.00;;;25.60;80.70;;;;;;4930650;28;20562;-70
2023/07/30 12:53:53;;;;;;;1.10;1.07;;;25.50;80.90;;;;;;4929245;29;20522;-68
2023/07/30 12:56:19;;;;;;;1.10;1.00;;;25.40;81.30;;;;;;4932437;28;20172;-68
2023/07/30 12:58:44;;;;;;;1.10;0.90;;;25.30;81.60;;;;;;4931616;29;20428;-68
2023/07/30 13:01:10;;;;;;;0.90;0.90;;;25.20;81.90;;;;;;4926509;29;20240;-68
2023/07/30 13:03:36;;;;;;;1.03;0.93;;;25.20;81.90;;;;;;4932387;29;20282;-67
2023/07/30 13:06:02;;;;;;;0.90;0.80;;;25.10;82.20;;;;;;4929674;28;20180;-68
2023/07/30 13:08:28;;;;;;;1.10;1.00;;;25.00;82.40;;;;;;4930375;29;20450;-67
2023/07/30 13:10:53;;;;;;;1.00;0.90;;;25.00;83.50;;;;;;4933158;29;20212;-67
2023/07/30 13:13:19;;;;;;;1.93;1.33;;;24.80;83.90;;;;;;4932479;28;20626;-66
2023/07/30 13:15:44;;;;;;;1.00;0.90;;;24.60;85.80;;;;;;4932054;29;20172;-66
2023/07/30 13:18:10;;;;;;;0.90;0.80;;;24.30;88.10;;;;;;4931170;29;20177;-65
2023/07/30 13:20:35;;;;;;;1.07;1.00;;;24.10;89.80;;;;;;4932269;29;20212;-65
2023/07/30 13:23:01;;;;;;;1.20;1.10;;;23.80;91.00;;;;;;4932495;29;20267;-67
2023/07/30 13:25:27;;;;;;;1.60;1.00;;;23.60;91.60;;;;;;4931903;29;20683;-67
2023/07/30 13:27:52;;;;;;;1.17;1.00;;;23.40;92.40;;;;;;4930279;29;20560;-68
2023/07/30 13:30:18;;;;;;;1.00;0.90;;;23.10;93.60;;;;;;4931480;29;20206;-67
2023/07/30 13:32:43;;;;;;;1.37;1.30;;;22.90;94.20;;;;;;4928346;29;20238;-67
2023/07/30 13:35:09;;;;;;;0.80;0.80;;;22.80;94.50;;;;;;4930176;29;20180;-68
2023/07/30 13:37:35;;;;;;;1.00;0.90;;;22.60;95.10;;;;;;4928932;29;20195;-65
2023/07/30 13:40:00;;;;;;;1.67;1.57;;;22.40;95.60;;;;;;4930858;29;20195;-69
2023/07/30 13:42:26;;;;;;;2.93;1.57;;;22.30;96.30;;;;;;4930507;29;20691;-66
2023/07/30 13:44:52;;;;;;;1.97;1.17;;;22.20;97.00;;;;;;4932188;29;20656;-66
2023/07/30 13:47:17;;;;;;;0.90;0.90;;;22.10;97.30;;;;;;4930756;29;20547;-66
2023/07/30 13:49:43;;;;;;;1.67;1.57;;;22.00;97.30;;;;;;4930110;29;21004;-66
2023/07/30 13:52:08;;;;;;;1.13;1.03;;;22.00;97.30;;;;;;4931652;29;20743;-67
2023/07/30 13:54:34;;;;;;;1.00;0.90;;;22.00;97.30;;;;;;4930609;28;20184;-67
2023/07/30 13:57:03;;;;;;;0.93;0.83;;;22.00;97.30;;;;;;4932030;28;20179;-66
2023/07/30 13:59:28;;;;;;;3.97;1.10;;;21.90;97.30;;;;;;4930053;29;20180;-66
2023/07/30 14:01:54;;;;;;;2.40;1.87;;;21.70;97.30;;;;;;4930121;28;21038;-66
2023/07/30 14:04:19;;;;;;;1.40;1.30;;;21.70;97.30;;;;;;4930709;29;20656;-65
2023/07/30 14:06:45;;;;;;;1.33;1.30;;;21.70;97.30;;;;;;4930357;29;20544;-66
2023/07/30 14:09:11;;;;;;;0.90;0.80;;;21.70;97.30;;;;;;4931784;29;20223;-66
2023/07/30 14:11:37;;;;;;;2.53;1.43;;;21.70;97.30;;;;;;4930474;29;20238;-66
2023/07/30 14:14:03;;;;;;;0.90;0.80;;;21.70;97.30;;;;;;4929840;29;20231;-67
2023/07/30 14:16:29;;;;;;;1.00;0.90;;;21.60;97.30;;;;;;4930144;29;20424;-66
2023/07/30 14:18:54;;;;;;;1.13;1.03;;;21.60;97.30;;;;;;4929558;29;20191;-66
2023/07/30 14:21:20;;;;;;;1.47;1.43;;;21.60;97.30;;;;;;4929454;29;20570;-66
2023/07/30 14:23:45;;;;;;;0.90;0.80;;;21.60;97.30;;;;;;4930309;29;20180;-66
2023/07/30 14:26:11;;;;;;;1.23;0.93;;;21.60;97.30;;;;;;4929848;29;20177;-67
2023/07/30 14:28:36;;;;;;;2.30;1.00;;;21.50;97.30;;;;;;4931241;29;20319;-66
2023/07/30 14:31:02;;;;;;;0.90;0.90;;;21.50;97.30;;;;;;4931354;28;20574;-65
2023/07/30 14:33:27;;;;;;;1.00;0.90;;;21.40;97.30;;;;;;4931400;29;20682;-66
2023/07/30 14:35:53;;;;;;;1.20;1.10;;;21.40;97.30;;;;;;4929315;29;20179;-66
2023/07/30 14:38:18;;;;;;;0.97;0.87;;;21.30;97.30;;;;;;4929724;29;20187;-66
2023/07/30 14:40:44;;;;;;;1.17;1.00;;;21.30;97.30;;;;;;4929352;29;20711;-66
2023/07/30 14:43:09;;;;;;;1.20;1.10;;;21.30;97.30;;;;;;4931103;28;20629;-70
2023/07/30 14:45:35;;;;;;;3.47;1.10;;;21.20;97.30;;;;;;4931398;29;20598;-66
2023/07/30 14:48:00;;;;;;;1.40;1.00;;;21.10;97.30;;;;;;4928604;29;20644;-66
2023/07/30 14:50:28;;;;;;;1.13;1.03;;;;;;;;;;4930425;29;20207;-67
2023/07/30 14:52:54;;;;;;;1.00;0.90;;;21.10;97.30;;;;;;4929614;29;20184;-66
2023/07/30 14:55:20;;;;;;;1.00;0.90;;;21.00;97.30;;;;;;4929190;29;20431;-65
2023/07/30 14:57:45;;;;;;;1.83;1.27;;;21.00;97.30;;;;;;4937743;29;20563;-66
2023/07/30 15:00:13;;;;;;;0.90;0.80;;;21.00;97.30;;;;;;4931515;28;20211;-66
2023/07/30 15:02:40;;;;;;;1.73;1.63;;;20.90;97.30;;;;;;4927314;29;20228;-66
2023/07/30 15:05:06;;;;;;;2.50;1.33;;;20.90;97.30;;;;;;4932408;28;20445;-66
2023/07/30 15:07:31;;;;;;;1.10;1.00;;;20.90;97.30;;;;;;4933955;29;20522;-65
2023/07/30 15:09:57;;;;;;;1.30;1.20;;;20.90;97.30;;;;;;4933691;29;20570;-65
2023/07/30 15:12:23;;;;;;;0.90;0.80;;;20.90;97.30;;;;;;4932800;28;20196;-64
2023/07/30 15:14:49;;;;;;;1.00;0.90;;;20.90;97.30;;;;;;4933588;29;20714;-64
2023/07/30 15:17:14;;;;;;;2.20;1.13;;;20.90;97.30;;;;;;4934806;29;20553;-65
2023/07/30 15:19:40;;;;;;;1.20;1.17;;;20.80;97.30;;;;;;4933015;28;20450;-64
2023/07/30 15:22:05;;;;;;;2.00;1.43;;;20.80;97.30;;;;;;4933061;29;20212;-64
2023/07/30 15:24:31;;;;;;;1.20;0.90;;;20.80;97.30;;;;;;4933544;29;20258;-64
2023/07/30 15:26:57;;;;;;;1.13;1.03;;;20.70;97.30;;;;;;4933339;29;20176;-64
2023/07/30 15:29:23;;;;;;;1.00;0.90;;;20.70;97.30;;;;;;4933529;29;20215;-64
2023/07/30 15:31:50;;;;;;;1.30;1.20;;;20.60;97.30;;;;;;4931821;29;20218;-64
2023/07/30 15:34:15;;;;;;;0.70;0.70;;;20.60;97.30;;;;;;4933450;29;20439;-64
2023/07/30 15:36:41;;;;;;;0.93;0.90;;;20.50;97.30;;;;;;4934747;29;20572;-64
2023/07/30 15:39:07;;;;;;;1.47;1.30;;;20.50;97.30;;;;;;4932131;29;20522;-64
2023/07/30 15:41:33;;;;;;;1.10;0.90;;;20.40;97.30;;;;;;4931529;29;20196;-64
2023/07/30 15:43:58;;;;;;;2.60;1.33;;;20.40;97.30;;;;;;4934424;29;20184;-64
2023/07/30 15:46:24;;;;;;;0.97;0.90;;;20.30;97.30;;;;;;4934591;29;20422;-64
2023/07/30 15:48:50;;;;;;;1.33;1.30;;;20.30;97.30;;;;;;4934469;29;20184;-64
2023/07/30 15:51:16;;;;;;;1.30;1.20;;;20.20;97.30;;;;;;4931820;29;20691;-64
2023/07/30 15:53:44;;;;;;;2.13;1.27;;;20.10;97.30;;;;;;4934172;29;20227;-64
2023/07/30 15:56:10;;;;;;;4.53;2.20;;;20.00;97.30;;;;;;4932752;28;20548;-64
2023/07/30 15:58:36;;;;;;;1.33;1.23;;;19.90;97.30;;;;;;4933908;29;20571;-64
2023/07/30 16:01:11;;;;;;;1.53;1.13;;;19.70;97.30;;;;;;4933295;29;20543;-64
2023/07/30 16:03:38;;;;;;;1.27;1.13;;;19.60;97.30;;;;;;4931751;29;20199;-66
2023/07/30 16:06:07;;;;;;;2.60;1.13;;;19.40;97.30;;;;;;4933223;28;20830;-64
2023/07/30 16:08:36;;;;;;;1.10;1.00;;;19.30;97.30;;;;;;4938604;28;20455;-65
2023/07/30 16:11:07;;;;;;;1.10;1.00;;;19.20;97.30;;;;;;4932286;29;20463;-65
2023/07/30 16:13:33;;;;;;;0.90;0.80;;;19.10;97.30;;;;;;4930089;29;20419;-66
2023/07/30 16:16:18;;;;;;;1.60;1.50;;;18.90;97.30;;;;;;4929988;29;20467;-66
2023/07/30 16:18:46;;;;;;;0.90;0.80;;;18.80;97.30;;;;;;4928669;29;20180;-66
2023/07/30 16:21:13;;;;;;;0.90;0.80;;;18.80;97.30;;;;;;4928348;29;20716;-65
2023/07/30 16:23:39;;;;;;;1.00;0.90;;;18.70;97.30;;;;;;4928720;29;20811;-65
2023/07/30 16:26:06;;;;;;;0.90;0.80;;;18.70;97.30;;;;;;4932250;29;20522;-65
2023/07/30 16:28:32;;;;;;;1.00;0.90;;;18.60;97.30;;;;;;4930752;29;20248;-64
2023/07/30 16:30:58;;;;;;;1.00;0.90;;;18.60;97.30;;;;;;4929349;29;20483;-65
2023/07/30 16:33:24;;;;;;;1.00;0.90;;;18.50;97.30;;;;;;4928703;29;20183;-64
2023/07/30 16:35:50;;;;;;;0.90;0.80;;;18.50;97.30;;;;;;4931358;29;20411;-64
2023/07/30 16:38:16;;;;;;;1.20;1.10;;;18.40;97.30;;;;;;4930570;29;20428;-64
2023/07/30 16:40:42;;;;;;;1.20;1.07;;;18.50;97.30;;;;;;4930505;29;20953;-64
2023/07/30 16:43:09;;;;;;;11.53;1.30;;;18.50;97.30;;;;;;4931870;29;20438;-64
2023/07/30 16:45:35;;;;;;;2.13;1.03;;;18.50;97.30;;;;;;4931613;28;20416;-65
2023/07/30 16:48:02;;;;;;;1.50;1.40;;;18.50;97.30;;;;;;4931852;29;20809;-64
2023/07/30 16:50:28;;;;;;;1.10;1.00;;;18.50;97.30;;;;;;4931719;29;20946;-65
2023/07/30 16:52:53;;;;;;;1.07;1.00;;;18.50;97.30;;;;;;4928113;29;20526;-64
2023/07/30 16:55:19;;;;;;;1.17;1.13;;;18.50;97.30;;;;;;4932022;29;20578;-65
2023/07/30 16:57:45;;;;;;;1.30;1.20;;;18.40;97.30;;;;;;4935264;29;20187;-65
2023/07/30 17:00:11;;;;;;;1.10;1.10;;;18.40;97.30;;;;;;4931764;29;20260;-65
2023/07/30 17:02:37;;;;;;;1.40;1.30;;;18.40;97.30;;;;;;4931706;29;20375;-64
2023/07/30 17:05:02;;;;;;;1.10;0.97;;;18.40;97.30;;;;;;4932213;29;20507;-64
2023/07/30 17:07:28;;;;;;;1.00;0.90;;;18.40;97.30;;;;;;4932389;29;20188;-64
2023/07/30 17:09:54;;;;;;;0.90;0.80;;;18.40;97.30;;;;;;4929354;29;20227;-66
2023/07/30 17:12:19;;;;;;;1.00;0.90;;;18.40;97.30;;;;;;4931092;29;20223;-66
2023/07/30 17:14:45;;;;;;;1.17;1.07;;;18.50;97.30;;;;;;4927797;28;20516;-66
2023/07/30 17:17:10;;;;;;;1.10;0.80;;;18.50;97.30;;;;;;4930507;29;20659;-67
2023/07/30 17:19:36;;;;;;;1.10;1.00;;;18.50;97.30;;;;;;4926162;29;20857;-66
2023/07/30 17:22:02;;;;;;;1.20;1.03;;;18.50;97.30;;;;;;4928507;28;20208;-66
2023/07/30 17:24:32;;;;;;;1.80;1.67;;;18.50;97.30;;;;;;4929516;29;20187;-67
2023/07/30 17:26:57;;;;;;;1.03;0.97;;;18.50;97.30;;;;;;4931014;29;20210;-66
2023/07/30 17:29:23;;;;;;;2.30;1.60;;;18.50;97.30;;;;;;4944089;28;20971;-66
2023/07/30 17:31:50;;;;;;;1.20;1.10;;;18.50;97.30;;;;;;4924205;29;20216;-66
2023/07/30 17:34:15;;;;;;;1.10;1.00;;;18.50;97.30;;;;;;4929383;29;20519;-66
2023/07/30 17:36:41;;;;;;;1.60;1.17;;;18.50;97.30;;;;;;4932736;29;20187;-66
2023/07/30 17:39:07;;;;;;;1.83;1.00;;;18.50;97.30;;;;;;4931306;29;20192;-66
2023/07/30 17:41:33;;;;;;;1.40;1.30;;;18.40;97.30;;;;;;4931325;29;20250;-66
2023/07/30 17:43:58;;;;;;;1.10;1.00;;;18.40;97.30;;;;;;4931294;29;20419;-67
2023/07/30 17:46:24;;;;;;;1.10;1.00;;;18.40;97.30;;;;;;4930565;29;20199;-67
2023/07/30 17:48:50;;;;;;;1.30;1.20;;;18.40;97.30;;;;;;4946812;28;20180;-67
2023/07/30 17:51:17;;;;;;;1.67;1.40;;;18.40;97.30;;;;;;4931979;29;20867;-67